Time;durP1;ratioP1;P1;durP2;ratioP2;P2;SDS_P1;SDS_P2;PMS_P1;PMS_P2;Temp;Humidity;BMP_temperature;BMP_pressure;BME280_temperature;BME280_humidity;BME280_pressure;Samples;Min_cycle;Max_cycle;Signal;HPM_P1;HPM_P2
2023/08/27 00:00:04;;;;;;;0.17;0.17;;;;;;;19.11;93.79;95010.69;4329652;32;20181;-65
2023/08/27 00:02:30;;;;;;;21.43;0.80;;;;;;;19.21;93.10;95009.34;4330777;32;20221;-65
2023/08/27 00:04:55;;;;;;;0.40;0.40;;;;;;;19.20;92.93;95002.41;4337311;32;20232;-65
2023/08/27 00:07:20;;;;;;;0.27;0.27;;;;;;;19.19;93.15;94990.09;4328267;32;20197;-65
2023/08/27 00:09:46;;;;;;;0.63;0.63;;;;;;;19.19;92.72;94980.09;4322337;32;20257;-65
2023/08/27 00:12:11;;;;;;;0.33;0.33;;;;;;;19.19;92.80;94988.19;4330029;32;20200;-65
2023/08/27 00:14:36;;;;;;;0.53;0.53;;;;;;;19.15;92.86;94973.09;4342975;32;20182;-65
2023/08/27 00:17:03;;;;;;;0.30;0.30;;;;;;;19.14;92.65;94958.09;4331918;32;20236;-65
2023/08/27 00:19:28;;;;;;;0.40;0.40;;;;;;;19.22;92.43;94971.31;4330840;32;20213;-65
2023/08/27 00:21:54;;;;;;;0.27;0.27;;;;;;;19.10;92.84;94958.06;4317128;32;20178;-65
2023/08/27 00:24:19;;;;;;;0.53;0.53;;;;;;;19.14;92.75;94955.41;4330620;32;20244;-65
2023/08/27 00:26:44;;;;;;;0.77;0.73;;;;;;;19.06;92.53;94961.81;4329345;32;20241;-65
2023/08/27 00:29:10;;;;;;;0.30;0.30;;;;;;;19.19;92.46;94972.03;4331823;32;20243;-65
2023/08/27 00:31:35;;;;;;;0.20;0.20;;;;;;;19.17;92.52;94968.91;4333125;32;20200;-65
2023/08/27 00:34:00;;;;;;;0.27;0.27;;;;;;;19.02;93.26;94980.56;4332906;32;20281;-65
2023/08/27 00:36:26;;;;;;;0.20;0.20;;;;;;;18.95;93.57;94988.47;4329033;32;20209;-65
2023/08/27 00:38:51;;;;;;;0.20;0.20;;;;;;;18.86;93.98;94985.25;4333216;32;20212;-65
2023/08/27 00:41:17;;;;;;;0.43;0.43;;;;;;;19.01;93.83;94981.69;4331884;32;20189;-65
2023/08/27 00:43:43;;;;;;;0.73;0.73;;;;;;;19.01;93.78;94957.47;4333048;32;20239;-65
2023/08/27 00:46:08;;;;;;;0.20;0.20;;;;;;;19.03;93.42;94941.78;4338437;32;20193;-65
2023/08/27 00:48:34;;;;;;;0.30;0.30;;;;;;;19.04;93.50;94935.25;4331837;32;20181;-65
2023/08/27 00:51:01;;;;;;;1.10;1.00;;;;;;;18.99;93.61;94932.84;4332508;32;20264;-64
2023/08/27 00:53:26;;;;;;;0.30;0.30;;;;;;;19.05;93.47;94939.50;4333129;32;20202;-65
2023/08/27 00:55:53;;;;;;;0.47;0.47;;;;;;;19.10;93.13;94933.84;4326924;32;20201;-65
2023/08/27 00:58:18;;;;;;;0.60;0.60;;;;;;;19.07;92.98;94936.47;4333185;32;20196;-65
2023/08/27 01:00:44;;;;;;;0.60;0.60;;;;;;;19.07;93.08;94920.34;4333089;32;20182;-65
2023/08/27 01:03:10;;;;;;;2.97;0.83;;;;;;;19.08;93.07;94914.59;4334400;32;20178;-65
2023/08/27 01:05:36;;;;;;;0.20;0.20;;;;;;;18.97;93.62;94902.84;4324414;32;20280;-65
2023/08/27 01:08:24;;;;;;;1.03;1.03;;;;;;;18.99;93.19;94899.81;4333030;32;20189;-65
2023/08/27 01:11:05;;;;;;;0.53;0.53;;;;;;;19.03;93.09;94889.91;4332594;32;20204;-65
2023/08/27 01:13:54;;;;;;;0.30;0.30;;;;;;;19.01;93.40;94887.56;4332515;32;20380;-65
2023/08/27 01:16:26;;;;;;;0.87;0.83;;;;;;;18.91;93.99;94880.13;4332619;32;20205;-65
2023/08/27 01:18:52;;;;;;;0.60;0.60;;;;;;;18.92;93.72;94884.31;4334823;32;20287;-65
2023/08/27 01:21:22;;;;;;;0.40;0.40;;;;;;;19.01;93.52;94882.19;4341537;32;20248;-65
2023/08/27 01:23:47;;;;;;;0.50;0.50;;;;;;;18.94;93.77;94884.75;4329769;32;20189;-64
2023/08/27 01:26:28;;;;;;;0.27;0.27;;;;;;;18.82;94.58;94891.06;4335094;32;20245;-65
2023/08/27 01:29:03;;;;;;;0.40;0.40;;;;;;;18.77;95.08;94886.00;4332238;32;20181;-65
2023/08/27 01:31:33;;;;;;;0.50;0.37;;;;;;;18.86;94.77;94883.09;4334713;32;20189;-64
2023/08/27 01:34:02;;;;;;;1.13;0.67;;;;;;;18.77;95.02;94875.22;4330850;32;20205;-65
2023/08/27 01:36:28;;;;;;;0.30;0.30;;;;;;;18.56;95.96;94861.38;4327752;32;20183;-65
2023/08/27 01:38:53;;;;;;;0.63;0.57;;;;;;;18.69;95.73;94848.59;4331803;32;20224;-65
2023/08/27 01:41:19;;;;;;;0.43;0.43;;;;;;;18.79;95.57;94848.00;4324651;32;20185;-64
2023/08/27 01:43:44;;;;;;;0.60;0.60;;;;;;;18.85;95.45;94850.06;4331828;32;20196;-65
2023/08/27 01:46:09;;;;;;;0.60;0.60;;;;;;;18.77;96.08;94850.28;4333897;32;20225;-65
2023/08/27 01:48:35;;;;;;;0.63;0.63;;;;;;;18.81;95.90;94851.13;4342506;32;20204;-64
2023/08/27 01:51:00;;;;;;;0.60;0.60;;;;;;;18.81;95.82;94857.28;4332210;32;20229;-65
2023/08/27 01:53:25;;;;;;;0.20;0.20;;;;;;;18.76;96.02;94862.16;4332488;32;20196;-65
2023/08/27 01:55:50;;;;;;;0.77;0.77;;;;;;;18.80;96.04;94865.69;4332239;32;20189;-65
2023/08/27 01:58:16;;;;;;;2.00;0.60;;;;;;;18.87;95.76;94853.16;4328053;32;20181;-65
2023/08/27 02:00:42;;;;;;;3.63;0.40;;;;;;;18.81;95.95;94846.50;4332164;32;20200;-65
2023/08/27 02:03:08;;;;;;;0.20;0.20;;;;;;;18.92;95.60;94854.75;4326503;32;20244;-65
2023/08/27 02:05:33;;;;;;;0.23;0.23;;;;;;;18.90;96.02;94857.06;4331852;32;20174;-64
2023/08/27 02:07:58;;;;;;;0.47;0.47;;;;;;;18.90;96.28;94848.22;4331862;32;20248;-64
2023/08/27 02:10:24;;;;;;;0.43;0.43;;;;;;;18.92;96.29;94857.44;4330652;32;20200;-64
2023/08/27 02:12:49;;;;;;;1.10;0.20;;;;;;;18.74;97.03;94854.44;4333089;32;20185;-65
2023/08/27 02:15:15;;;;;;;0.53;0.53;;;;;;;18.82;96.93;94855.34;4329540;32;20201;-65
2023/08/27 02:17:41;;;;;;;0.47;0.47;;;;;;;18.77;97.53;94848.34;4333020;32;20208;-67
2023/08/27 02:20:57;;;;;;;0.47;0.47;;;;;;;18.71;97.80;94833.66;4331580;32;20261;-65
2023/08/27 02:23:23;;;;;;;0.67;0.67;;;;;;;18.70;97.63;94825.97;4316722;32;20182;-65
2023/08/27 02:25:49;;;;;;;0.10;0.10;;;;;;;18.73;97.51;94831.38;4335913;32;20182;-64
2023/08/27 02:28:14;;;;;;;0.30;0.30;;;;;;;18.76;97.50;94852.19;4335984;32;20256;-65
2023/08/27 02:30:39;;;;;;;0.63;0.63;;;;;;;18.85;96.58;94846.59;4332092;32;20177;-65
2023/08/27 02:33:05;;;;;;;0.13;0.13;;;;;;;18.63;97.36;94856.16;4329415;32;20178;-65
2023/08/27 02:35:30;;;;;;;0.70;0.70;;;;;;;18.47;98.26;94869.66;4339909;32;20229;-65
2023/08/27 02:37:55;;;;;;;0.30;0.30;;;;;;;18.64;98.54;94875.75;4330421;32;20185;-65
2023/08/27 02:40:21;;;;;;;0.30;0.30;;;;;;;18.66;98.46;94870.81;4331056;32;20193;-65
2023/08/27 02:42:47;;;;;;;0.67;0.67;;;;;;;18.49;99.37;94878.16;4331174;32;20186;-65
2023/08/27 02:45:12;;;;;;;0.70;0.70;;;;;;;18.45;100.00;94877.28;4330586;32;20181;-65
2023/08/27 02:47:38;;;;;;;5.40;0.73;;;;;;;18.43;100.00;94882.25;4333079;32;20204;-65
2023/08/27 02:50:04;;;;;;;0.43;0.43;;;;;;;18.51;100.00;94875.84;4331007;32;20290;-65
2023/08/27 02:52:29;;;;;;;0.30;0.30;;;;;;;18.48;100.00;94881.97;4331460;32;20182;-64
2023/08/27 02:54:54;;;;;;;0.53;0.53;;;;;;;18.46;100.00;94888.81;4330434;32;20193;-65
2023/08/27 02:57:20;;;;;;;0.30;0.30;;;;;;;18.45;100.00;94893.41;4332039;32;20174;-65
2023/08/27 02:59:45;;;;;;;0.47;0.47;;;;;;;18.36;100.00;94890.16;4331945;32;20272;-65
2023/08/27 03:02:10;;;;;;;0.47;0.47;;;;;;;18.36;100.00;94895.53;4332931;32;20181;-64
2023/08/27 03:04:36;;;;;;;0.37;0.37;;;;;;;18.50;100.00;94886.97;4331156;32;20182;-65
2023/08/27 03:07:01;;;;;;;0.37;0.37;;;;;;;18.53;100.00;94878.97;4329264;32;20279;-65
2023/08/27 03:09:26;;;;;;;0.57;0.50;;;;;;;18.48;100.00;94876.59;4331642;32;20186;-65
2023/08/27 03:11:52;;;;;;;0.53;0.53;;;;;;;18.53;100.00;94864.75;4331291;32;20198;-65
2023/08/27 03:14:17;;;;;;;0.57;0.57;;;;;;;18.39;100.00;94869.88;4331488;32;20186;-65
2023/08/27 03:16:42;;;;;;;0.40;0.40;;;;;;;18.35;100.00;94869.78;4331369;32;20177;-65
2023/08/27 03:19:08;;;;;;;0.60;0.60;;;;;;;18.26;100.00;94874.59;4332333;32;20182;-65
2023/08/27 03:21:34;;;;;;;0.20;0.20;;;;;;;18.34;100.00;94873.59;4329314;32;20257;-65
2023/08/27 03:23:59;;;;;;;0.77;0.77;;;;;;;18.24;100.00;94884.16;4330261;32;20174;-65
2023/08/27 03:26:25;;;;;;;0.20;0.20;;;;;;;18.23;100.00;94888.75;4331416;32;20185;-65
2023/08/27 03:28:50;;;;;;;2.53;0.80;;;;;;;18.12;100.00;94901.94;4328724;32;20224;-65
2023/08/27 03:31:16;;;;;;;0.47;0.47;;;;;;;18.34;100.00;94908.53;4330754;32;20193;-65
2023/08/27 03:33:41;;;;;;;0.60;0.53;;;;;;;18.43;100.00;94919.84;4333410;32;20185;-65
2023/08/27 03:36:07;;;;;;;2.30;0.53;;;;;;;18.45;100.00;94919.50;4331797;32;20209;-65
2023/08/27 03:38:32;;;;;;;0.80;0.80;;;;;;;18.28;100.00;94915.31;4330673;32;20174;-65
2023/08/27 03:40:59;;;;;;;0.67;0.67;;;;;;;18.31;100.00;94913.81;4331060;32;20194;-65
2023/08/27 03:43:24;;;;;;;0.10;0.10;;;;;;;18.35;100.00;94890.50;4331296;32;20270;-65
2023/08/27 03:45:49;;;;;;;0.70;0.70;;;;;;;18.26;100.00;94852.34;4328549;32;20198;-65
2023/08/27 03:48:15;;;;;;;0.27;0.27;;;;;;;18.34;100.00;94860.19;4326964;32;20173;-65
2023/08/27 03:50:40;;;;;;;0.50;0.50;;;;;;;18.44;100.00;94869.59;4335761;32;20174;-65
2023/08/27 03:53:06;;;;;;;0.77;0.50;;;;;;;18.36;100.00;94876.72;4330372;32;20174;-65
2023/08/27 03:55:39;;;;;;;0.60;0.60;;;;;;;18.50;100.00;94884.28;4335445;32;20252;-65
2023/08/27 03:58:05;;;;;;;0.73;0.67;;;;;;;18.53;100.00;94888.94;4330624;32;20182;-65
2023/08/27 04:00:30;;;;;;;0.20;0.20;;;;;;;18.59;100.00;94892.13;4324886;32;20185;-64
2023/08/27 04:02:56;;;;;;;0.40;0.40;;;;;;;18.48;100.00;94881.19;4329607;32;20186;-65
2023/08/27 04:05:21;;;;;;;0.83;0.83;;;;;;;18.51;100.00;94877.75;4333586;32;20186;-65
2023/08/27 04:07:46;;;;;;;0.60;0.60;;;;;;;18.59;100.00;94884.06;4333383;32;20185;-65
2023/08/27 04:10:12;;;;;;;0.53;0.53;;;;;;;18.57;100.00;94895.16;4332187;32;20182;-65
2023/08/27 04:12:37;;;;;;;1.70;0.57;;;;;;;18.51;100.00;94901.94;4334916;32;20182;-65
2023/08/27 04:15:02;;;;;;;0.30;0.30;;;;;;;18.64;100.00;94891.88;4329250;32;20228;-65
2023/08/27 04:17:28;;;;;;;0.57;0.57;;;;;;;18.63;100.00;94893.00;4331755;32;20182;-65
2023/08/27 04:19:55;;;;;;;0.50;0.50;;;;;;;18.58;100.00;94906.69;4333420;32;20208;-65
2023/08/27 04:22:20;;;;;;;0.30;0.30;;;;;;;18.57;100.00;94921.25;4332091;32;20186;-65
2023/08/27 04:24:46;;;;;;;0.63;0.63;;;;;;;18.63;100.00;94931.41;4333169;32;20193;-65
2023/08/27 04:27:11;;;;;;;0.40;0.40;;;;;;;18.38;100.00;94930.09;4334855;32;20182;-65
2023/08/27 04:29:36;;;;;;;1.07;1.07;;;;;;;18.52;100.00;94915.03;4333265;32;20190;-65
2023/08/27 04:32:03;;;;;;;1.83;0.50;;;;;;;18.48;100.00;94908.84;4321401;32;20269;-65
2023/08/27 04:34:28;;;;;;;0.70;0.70;;;;;;;18.50;100.00;94903.84;4329609;32;20194;-65
2023/08/27 04:36:55;;;;;;;0.30;0.30;;;;;;;18.39;100.00;94908.25;4331435;32;20221;-65
2023/08/27 04:39:21;;;;;;;0.50;0.50;;;;;;;18.37;100.00;94907.81;4333008;32;20283;-65
2023/08/27 04:41:47;;;;;;;0.70;0.63;;;;;;;18.39;100.00;94902.87;4331708;32;20182;-65
2023/08/27 04:44:12;;;;;;;1.43;0.93;;;;;;;18.47;100.00;94911.88;4319336;32;20215;-65
2023/08/27 04:46:39;;;;;;;0.47;0.47;;;;;;;18.35;100.00;94915.44;4333590;32;20189;-65
2023/08/27 04:49:05;;;;;;;1.13;1.13;;;;;;;18.52;100.00;94915.03;4332160;32;20175;-65
2023/08/27 04:51:30;;;;;;;1.13;0.77;;;;;;;18.53;100.00;94918.50;4333884;32;20304;-64
2023/08/27 04:53:56;;;;;;;0.40;0.40;;;;;;;18.51;100.00;94918.84;4332504;32;20200;-65
2023/08/27 04:56:21;;;;;;;0.50;0.50;;;;;;;18.52;100.00;94917.72;4331057;32;20225;-65
2023/08/27 04:58:46;;;;;;;0.43;0.43;;;;;;;18.51;100.00;94912.69;4332855;32;20308;-65
2023/08/27 05:01:11;;;;;;;0.70;0.70;;;;;;;18.53;100.00;94905.84;4334410;32;20182;-65
2023/08/27 05:03:37;;;;;;;0.40;0.40;;;;;;;18.56;100.00;94912.41;4333736;32;20189;-65
2023/08/27 05:06:02;;;;;;;0.97;0.70;;;;;;;18.63;100.00;94914.50;4332778;32;20181;-65
2023/08/27 05:08:28;;;;;;;0.87;0.87;;;;;;;18.56;100.00;94923.16;4332895;32;20203;-65
2023/08/27 05:10:53;;;;;;;0.47;0.47;;;;;;;18.55;100.00;94929.66;4330860;32;20224;-65
2023/08/27 05:13:20;;;;;;;0.63;0.53;;;;;;;18.33;100.00;94944.56;4323448;32;20232;-65
2023/08/27 05:15:45;;;;;;;0.33;0.33;;;;;;;18.19;100.00;94946.97;4337112;32;20201;-65
2023/08/27 05:18:14;;;;;;;1.23;0.80;;;;;;;18.14;100.00;94953.38;4334421;32;20192;-65
2023/08/27 05:20:39;;;;;;;0.20;0.20;;;;;;;18.00;100.00;94942.31;4332202;32;20197;-65
2023/08/27 05:23:04;;;;;;;0.10;0.10;;;;;;;18.18;100.00;94926.59;4330475;32;20185;-65
2023/08/27 05:25:30;;;;;;;0.80;0.73;;;;;;;18.15;100.00;94913.88;4331700;32;20224;-64
2023/08/27 05:27:55;;;;;;;0.63;0.63;;;;;;;17.96;100.00;94936.09;4332409;32;20174;-65
2023/08/27 05:30:21;;;;;;;0.60;0.53;;;;;;;18.04;100.00;94945.09;4341365;32;20225;-65
2023/08/27 05:32:46;;;;;;;0.47;0.47;;;;;;;17.92;100.00;94947.87;4332661;32;20186;-65
2023/08/27 05:35:12;;;;;;;0.50;0.50;;;;;;;17.91;100.00;94957.03;4334123;32;20269;-65
2023/08/27 05:37:38;;;;;;;0.17;0.17;;;;;;;17.87;100.00;94955.06;4332946;32;20269;-65
2023/08/27 05:40:08;;;;;;;0.33;0.33;;;;;;;17.94;100.00;94949.06;4331845;32;20210;-65
2023/08/27 05:42:34;;;;;;;0.83;0.77;;;;;;;17.90;100.00;94948.22;4332631;32;20186;-65
2023/08/27 05:45:00;;;;;;;0.20;0.20;;;;;;;17.96;100.00;94952.19;4338822;32;20173;-65
2023/08/27 05:47:29;;;;;;;0.33;0.33;;;;;;;18.11;100.00;94947.91;4337610;32;20243;-65
2023/08/27 05:49:54;;;;;;;0.43;0.40;;;;;;;18.03;100.00;94943.53;4332706;32;20182;-65
2023/08/27 05:52:20;;;;;;;0.30;0.30;;;;;;;17.89;100.00;94953.94;4329684;32;20249;-65
2023/08/27 05:54:45;;;;;;;0.20;0.20;;;;;;;17.87;100.00;94951.62;4330094;32;20194;-65
2023/08/27 05:57:10;;;;;;;0.67;0.67;;;;;;;18.01;100.00;94946.56;4333669;32;20252;-65
2023/08/27 05:59:35;;;;;;;0.67;0.67;;;;;;;17.93;100.00;94950.19;4331825;32;20210;-65
2023/08/27 06:02:01;;;;;;;0.63;0.63;;;;;;;17.81;100.00;94948.41;4338479;32;22123;-65
2023/08/27 06:04:26;;;;;;;0.43;0.43;;;;;;;17.83;100.00;94943.47;4340296;32;20186;-65
2023/08/27 06:06:51;;;;;;;1.10;0.67;;;;;;;17.84;100.00;94945.03;4329764;32;20200;-65
2023/08/27 06:09:17;;;;;;;0.90;0.73;;;;;;;18.01;100.00;94953.84;4318605;32;20190;-65
2023/08/27 06:11:42;;;;;;;1.40;0.60;;;;;;;18.14;100.00;94952.59;4319839;32;20178;-65
2023/08/27 06:14:08;;;;;;;0.40;0.40;;;;;;;18.16;100.00;94961.06;4318017;32;20212;-65
2023/08/27 06:16:34;;;;;;;0.47;0.47;;;;;;;18.15;100.00;94970.25;4331626;32;20202;-65
2023/08/27 06:19:01;;;;;;;1.03;1.03;;;;;;;18.00;100.00;94969.16;4331509;32;20186;-65
2023/08/27 06:21:27;;;;;;;0.53;0.53;;;;;;;18.11;100.00;94969.41;4330465;32;20189;-65
2023/08/27 06:23:53;;;;;;;0.93;0.93;;;;;;;18.11;100.00;94980.13;4331290;32;20220;-65
2023/08/27 06:26:18;;;;;;;0.20;0.20;;;;;;;18.21;100.00;94979.59;4339446;32;20212;-64
2023/08/27 06:28:46;;;;;;;0.50;0.50;;;;;;;18.28;100.00;94976.31;4328676;32;20220;-65
2023/08/27 06:31:11;;;;;;;0.43;0.43;;;;;;;18.15;100.00;94987.16;4332997;32;20177;-65
2023/08/27 06:33:38;;;;;;;0.47;0.47;;;;;;;18.20;100.00;94978.84;4318988;32;20193;-65
2023/08/27 06:36:04;;;;;;;0.43;0.43;;;;;;;18.04;100.00;94977.31;4335813;32;20208;-65
2023/08/27 06:38:29;;;;;;;1.00;0.60;;;;;;;17.99;100.00;94983.72;4330773;32;20265;-65
2023/08/27 06:40:55;;;;;;;0.97;0.97;;;;;;;18.03;100.00;94984.59;4330529;32;20185;-65
2023/08/27 06:43:21;;;;;;;0.50;0.50;;;;;;;17.94;100.00;94973.22;4332092;32;20182;-65
2023/08/27 06:45:46;;;;;;;0.60;0.40;;;;;;;18.12;100.00;94965.59;4330248;32;20190;-65
2023/08/27 06:48:11;;;;;;;0.70;0.60;;;;;;;18.03;100.00;94965.78;4319613;32;20200;-65
2023/08/27 06:50:37;;;;;;;0.33;0.33;;;;;;;17.86;100.00;94963.47;4331303;32;20248;-65
2023/08/27 06:53:04;;;;;;;0.40;0.40;;;;;;;17.94;100.00;94969.78;4330759;32;20288;-65
2023/08/27 06:55:29;;;;;;;0.70;0.70;;;;;;;17.89;100.00;94959.28;4333722;32;20196;-65
2023/08/27 06:57:54;;;;;;;0.40;0.40;;;;;;;18.07;100.00;94958.59;4331496;32;20182;-65
2023/08/27 07:00:20;;;;;;;0.20;0.20;;;;;;;18.07;100.00;94963.97;4329522;32;20182;-65
2023/08/27 07:02:45;;;;;;;0.67;0.67;;;;;;;18.02;100.00;94952.72;4328584;32;20225;-65
2023/08/27 07:05:10;;;;;;;0.20;0.20;;;;;;;18.07;100.00;94947.09;4319734;32;20178;-65
2023/08/27 07:07:40;;;;;;;0.40;0.40;;;;;;;18.10;100.00;94946.34;4330010;32;20185;-65
2023/08/27 07:10:06;;;;;;;0.50;0.50;;;;;;;18.04;100.00;94951.25;4327301;32;20228;-65
2023/08/27 07:12:35;;;;;;;0.10;0.10;;;;;;;17.98;100.00;94949.94;4316661;32;20641;-65
2023/08/27 07:15:02;;;;;;;0.20;0.20;;;;;;;18.05;100.00;94933.22;4331445;32;20165;-65
2023/08/27 07:17:28;;;;;;;0.53;0.53;;;;;;;18.18;100.00;94923.91;4325330;32;20271;-65
2023/08/27 07:19:55;;;;;;;0.40;0.40;;;;;;;18.29;100.00;94932.22;4330547;32;20201;-65
2023/08/27 07:22:21;;;;;;;0.43;0.43;;;;;;;18.22;100.00;94948.94;4330461;32;20177;-65
2023/08/27 07:24:46;;;;;;;0.70;0.57;;;;;;;18.24;100.00;94944.00;4331271;32;20204;-65
2023/08/27 07:27:11;;;;;;;1.70;1.23;;;;;;;18.14;100.00;94957.97;4332909;32;20186;-65
2023/08/27 07:29:38;;;;;;;0.30;0.30;;;;;;;18.26;100.00;94957.84;4333061;32;20205;-65
2023/08/27 07:32:04;;;;;;;0.50;0.50;;;;;;;18.32;100.00;94964.50;4316925;32;20260;-65
2023/08/27 07:34:30;;;;;;;0.30;0.30;;;;;;;18.41;100.00;94967.78;4331572;32;20190;-65
2023/08/27 07:36:55;;;;;;;0.30;0.30;;;;;;;18.47;100.00;94977.13;4337239;32;20203;-65
2023/08/27 07:39:22;;;;;;;0.30;0.30;;;;;;;18.33;100.00;94973.34;4326999;32;20205;-65
2023/08/27 07:41:47;;;;;;;0.87;0.80;;;;;;;18.42;100.00;94974.72;4339083;32;20209;-65
2023/08/27 07:44:12;;;;;;;0.90;0.77;;;;;;;18.40;100.00;94976.97;4333749;32;20189;-65
2023/08/27 07:46:38;;;;;;;0.83;0.83;;;;;;;18.22;100.00;94973.13;4322168;32;20192;-65
2023/08/27 07:49:03;;;;;;;0.37;0.37;;;;;;;18.39;100.00;94975.41;4333049;32;20233;-65
2023/08/27 07:51:28;;;;;;;0.20;0.20;;;;;;;18.31;100.00;94987.09;4333916;32;20200;-66
2023/08/27 07:53:54;;;;;;;0.40;0.40;;;;;;;18.52;100.00;94984.88;4334257;32;20181;-65
2023/08/27 07:56:19;;;;;;;0.33;0.33;;;;;;;18.42;100.00;94993.50;4331740;32;20186;-65
2023/08/27 07:58:44;;;;;;;0.50;0.50;;;;;;;18.46;100.00;94983.63;4325560;32;20196;-65
2023/08/27 08:01:11;;;;;;;0.20;0.20;;;;;;;18.46;100.00;94985.53;4334877;32;20196;-65
2023/08/27 08:03:37;;;;;;;0.37;0.30;;;;;;;18.52;100.00;94984.88;4331562;32;20240;-65
2023/08/27 08:06:03;;;;;;;0.37;0.37;;;;;;;18.52;100.00;94968.75;4333898;32;20325;-65
2023/08/27 08:08:29;;;;;;;0.47;0.47;;;;;;;18.51;100.00;94964.53;4333067;32;20196;-65
2023/08/27 08:10:55;;;;;;;2.03;0.60;;;;;;;18.30;100.00;94965.97;4333530;32;20185;-65
2023/08/27 08:13:21;;;;;;;0.73;0.73;;;;;;;18.44;100.00;94959.00;4333708;32;20204;-65
2023/08/27 08:15:49;;;;;;;0.73;0.73;;;;;;;18.50;100.00;94959.50;4333855;32;20186;-65
2023/08/27 08:18:15;;;;;;;0.77;0.77;;;;;;;18.33;100.00;94960.69;4331552;32;20245;-65
2023/08/27 08:20:40;;;;;;;0.73;0.73;;;;;;;18.51;100.00;94966.44;4340587;32;20181;-65
2023/08/27 08:23:05;;;;;;;0.50;0.50;;;;;;;18.57;100.00;94959.66;4327455;32;20228;-65
2023/08/27 08:25:33;;;;;;;0.50;0.50;;;;;;;18.54;100.00;94961.13;4320262;32;20198;-65
2023/08/27 08:27:59;;;;;;;0.33;0.33;;;;;;;18.55;100.00;94957.31;4326836;32;20189;-65
2023/08/27 08:30:24;;;;;;;0.40;0.40;;;;;;;18.71;100.00;94959.19;4330596;32;20185;-65
2023/08/27 08:32:49;;;;;;;0.40;0.40;;;;;;;18.38;100.00;94965.78;4333322;32;20186;-65
2023/08/27 08:35:15;;;;;;;0.27;0.27;;;;;;;18.47;100.00;94963.69;4332027;32;20197;-65
2023/08/27 08:37:40;;;;;;;0.37;0.37;;;;;;;18.32;100.00;94972.56;4345557;32;20177;-64
2023/08/27 08:40:06;;;;;;;0.33;0.33;;;;;;;18.44;100.00;94972.44;4332984;32;20271;-65
2023/08/27 08:42:34;;;;;;;0.20;0.20;;;;;;;18.27;100.00;94967.47;4332392;32;20220;-65
2023/08/27 08:45:10;;;;;;;0.60;0.60;;;;;;;18.54;100.00;94957.66;4332311;32;20186;-65
2023/08/27 08:47:36;;;;;;;0.30;0.30;;;;;;;18.47;100.00;94966.38;4333232;32;20185;-65
2023/08/27 08:50:05;;;;;;;0.20;0.20;;;;;;;18.55;100.00;94976.13;4332869;32;20268;-65
2023/08/27 08:52:36;;;;;;;0.10;0.07;;;;;;;18.34;100.00;94985.63;4342335;32;20189;-65
2023/08/27 08:55:07;;;;;;;0.20;0.20;;;;;;;18.30;100.00;94982.09;4337619;32;20190;-65
2023/08/27 08:57:38;;;;;;;0.83;0.83;;;;;;;18.28;100.00;94979.78;4328540;32;20295;-65
2023/08/27 09:00:03;;;;;;;0.50;0.50;;;;;;;18.32;100.00;94977.91;4330348;32;20294;-65
2023/08/27 09:02:29;;;;;;;0.27;0.27;;;;;;;18.37;100.00;94977.66;4332646;32;20194;-65
2023/08/27 09:04:56;;;;;;;0.20;0.20;;;;;;;18.30;100.00;94988.22;4332468;32;20201;-65
2023/08/27 09:07:21;;;;;;;0.40;0.40;;;;;;;18.28;100.00;94985.16;4336131;32;20173;-65
2023/08/27 09:09:48;;;;;;;0.07;0.07;;;;;;;18.34;100.00;94982.94;4330069;32;20273;-65
2023/08/27 09:12:15;;;;;;;0.87;0.87;;;;;;;18.56;100.00;94982.28;4326980;32;20212;-65
2023/08/27 09:14:41;;;;;;;0.93;0.57;;;;;;;18.29;100.00;94986.69;4333212;32;20181;-65
2023/08/27 09:17:07;;;;;;;0.43;0.43;;;;;;;18.11;100.00;94972.84;4329213;32;20204;-65
2023/08/27 09:19:35;;;;;;;1.23;0.57;;;;;;;18.12;100.00;94984.38;4326254;32;20299;-65
2023/08/27 09:22:00;;;;;;;0.20;0.20;;;;;;;18.26;100.00;94982.03;4328495;32;20198;-65
2023/08/27 09:24:26;;;;;;;0.23;0.23;;;;;;;18.24;100.00;94988.88;4331620;32;20181;-65
2023/08/27 09:26:51;;;;;;;0.23;0.23;;;;;;;18.25;100.00;94993.91;4332507;32;20240;-65
2023/08/27 09:29:17;;;;;;;0.30;0.30;;;;;;;18.14;100.00;94992.87;4332328;32;20189;-65
2023/08/27 09:31:44;;;;;;;0.27;0.27;;;;;;;18.24;100.00;94991.56;4332392;32;20182;-65
2023/08/27 09:34:11;;;;;;;0.40;0.40;;;;;;;18.18;100.00;95002.56;4329182;32;20243;-65
2023/08/27 09:36:37;;;;;;;0.43;0.43;;;;;;;18.22;100.00;95005.34;4331110;32;20178;-65
2023/08/27 09:39:10;;;;;;;0.83;0.47;;;;;;;18.21;100.00;95006.47;4332278;32;20284;-65
2023/08/27 09:41:46;;;;;;;0.87;0.50;;;;;;;18.12;100.00;95011.22;4332022;32;20236;-65
2023/08/27 09:44:13;;;;;;;0.10;0.10;;;;;;;18.02;100.00;95017.16;4331076;32;20181;-65
2023/08/27 09:46:40;;;;;;;0.13;0.13;;;;;;;18.04;100.00;95009.53;4318345;32;20195;-65
2023/08/27 09:49:07;;;;;;;0.40;0.40;;;;;;;17.89;100.00;95010.28;4328827;32;20232;-64
2023/08/27 09:51:39;;;;;;;0.20;0.20;;;;;;;18.10;100.00;94997.38;4329634;32;20280;-65
2023/08/27 09:54:19;;;;;;;0.30;0.30;;;;;;;17.98;100.00;94989.44;4331836;32;20240;-65
2023/08/27 09:56:46;;;;;;;0.10;0.10;;;;;;;17.93;100.00;94993.16;4330815;32;20215;-65
2023/08/27 09:59:18;;;;;;;0.10;0.10;;;;;;;17.98;99.87;94986.75;4331763;32;20182;-65
2023/08/27 10:01:47;;;;;;;0.40;0.40;;;;;;;17.82;100.00;94987.53;4321895;32;20236;-65
2023/08/27 10:04:13;;;;;;;0.23;0.23;;;;;;;17.77;99.74;94989.69;4331745;32;20177;-65
2023/08/27 10:06:38;;;;;;;0.30;0.30;;;;;;;17.94;99.41;94972.47;4331333;32;20196;-65
2023/08/27 10:09:04;;;;;;;0.63;0.63;;;;;;;17.82;99.29;94987.53;4331383;32;20265;-66
2023/08/27 10:11:34;;;;;;;0.27;0.27;;;;;;;17.80;99.60;94994.37;4332601;32;20186;-65
2023/08/27 10:14:00;;;;;;;0.30;0.30;;;;;;;17.88;98.77;94969.25;4330965;32;20199;-65
2023/08/27 10:16:30;;;;;;;0.43;0.43;;;;;;;17.76;97.71;94985.47;4330507;32;20196;-65
2023/08/27 10:18:57;;;;;;;0.20;0.20;;;;;;;17.71;98.62;94994.53;4331094;32;20204;-65
2023/08/27 10:21:23;;;;;;;2.23;0.73;;;;;;;17.56;97.64;94987.25;4331694;32;20259;-65
2023/08/27 10:23:48;;;;;;;0.60;0.30;;;;;;;17.66;98.25;94978.72;4331260;32;20216;-65
2023/08/27 10:26:14;;;;;;;0.30;0.30;;;;;;;17.75;97.80;94973.16;4318048;32;20181;-65
2023/08/27 10:28:40;;;;;;;0.27;0.27;;;;;;;17.72;97.85;94971.19;4334055;32;20182;-65
2023/08/27 10:31:06;;;;;;;0.40;0.40;;;;;;;17.65;97.09;94953.03;4318398;32;20182;-65
2023/08/27 10:33:32;;;;;;;0.10;0.10;;;;;;;17.52;98.14;94946.13;4331702;32;20196;-65
2023/08/27 10:36:04;;;;;;;1.00;0.67;;;;;;;17.65;98.56;94966.44;4331368;32;20174;-65
2023/08/27 10:38:33;;;;;;;2.43;0.57;;;;;;;17.64;98.56;94967.56;4331283;32;20186;-65
2023/08/27 10:40:59;;;;;;;0.53;0.50;;;;;;;17.48;99.42;94964.81;4328231;32;20213;-65
2023/08/27 10:43:32;;;;;;;0.47;0.40;;;;;;;17.44;99.24;94966.66;4331063;32;20174;-65
2023/08/27 10:46:15;;;;;;;0.33;0.33;;;;;;;17.37;99.39;94963.78;4331170;32;20197;-65
2023/08/27 10:48:40;;;;;;;0.40;0.40;;;;;;;17.34;99.93;94958.31;4323393;32;20192;-65
2023/08/27 10:51:11;;;;;;;0.10;0.10;;;;;;;17.51;99.49;94961.44;4328577;32;20287;-65
2023/08/27 10:53:49;;;;;;;0.43;0.43;;;;;;;17.36;99.59;94972.19;4317093;32;20186;-65
2023/08/27 10:56:32;;;;;;;0.80;0.70;;;;;;;17.50;99.41;94967.94;4323805;32;20200;-65
2023/08/27 10:59:01;;;;;;;0.73;0.30;;;;;;;17.52;99.88;94975.63;4334950;32;20194;-65
2023/08/27 11:01:27;;;;;;;0.30;0.30;;;;;;;17.53;100.00;94977.19;4340630;32;20186;-65
2023/08/27 11:03:57;;;;;;;6.03;0.77;;;;;;;17.36;100.00;94974.84;4331048;32;20247;-65
2023/08/27 11:06:45;;;;;;;0.23;0.23;;;;;;;17.46;100.00;94985.06;4330694;32;20305;-65
2023/08/27 11:09:24;;;;;;;0.00;0.00;;;;;;;17.36;100.00;94982.91;4330662;32;20194;-65
2023/08/27 11:12:03;;;;;;;0.50;0.50;;;;;;;17.59;100.00;94994.59;4326085;32;20247;-65
2023/08/27 11:14:36;;;;;;;23.33;1.33;;;;;;;17.47;100.00;94995.44;4328572;32;20212;-65
2023/08/27 11:17:03;;;;;;;0.77;0.77;;;;;;;17.45;100.00;94994.25;4329229;32;20189;-65
2023/08/27 11:19:37;;;;;;;0.40;0.40;;;;;;;17.59;100.00;94986.56;4330409;32;20304;-64
2023/08/27 11:22:20;;;;;;;0.60;0.53;;;;;;;17.56;100.00;94997.97;4330148;32;20205;-65
2023/08/27 11:24:54;;;;;;;0.77;0.63;;;;;;;17.52;100.00;94989.06;4329236;32;20169;-65